Time;durP1;ratioP1;P1;durP2;ratioP2;P2;SDS_P1;SDS_P2;PMS_P1;PMS_P2;Temp;Humidity;BMP_temperature;BMP_pressure;BME280_temperature;BME280_humidity;BME280_pressure;Samples;Min_cycle;Max_cycle;Signal;HPM_P1;HPM_P2
2023/11/27 00:02:03;;;;;;;14.60;9.27;;;4.90;99.90;;;;;;5039321;28;20041;-75
2023/11/27 00:04:50;;;;;;;17.17;9.63;;;4.90;99.90;;;;;;5018290;28;20045;-75
2023/11/27 00:07:36;;;;;;;17.10;9.40;;;4.90;99.90;;;;;;5026734;28;20037;-75
2023/11/27 00:10:22;;;;;;;15.88;10.57;;;5.00;99.90;;;;;;5022782;28;20038;-75
2023/11/27 00:13:08;;;;;;;17.13;9.23;;;5.00;99.90;;;;;;5025036;28;20042;-75
2023/11/27 00:15:54;;;;;;;14.93;9.25;;;4.90;99.90;;;;;;5032029;28;20140;-75
2023/11/27 00:18:40;;;;;;;14.85;9.38;;;4.90;99.90;;;;;;5002464;28;20034;-75
2023/11/27 00:21:26;;;;;;;17.98;9.88;;;4.90;99.90;;;;;;5027043;28;20470;-75
2023/11/27 00:24:12;;;;;;;15.25;9.90;;;4.90;99.90;;;;;;5026668;28;20092;-75
2023/11/27 00:26:58;;;;;;;17.13;9.60;;;4.80;99.90;;;;;;5032490;28;20063;-75
2023/11/27 00:29:46;;;;;;;17.73;10.60;;;4.90;99.90;;;;;;5011445;28;20050;-74
2023/11/27 00:32:33;;;;;;;15.93;9.85;;;4.90;99.90;;;;;;5015829;28;20191;-74
2023/11/27 00:35:20;;;;;;;17.48;9.73;;;4.90;99.90;;;;;;5024783;28;20087;-74
2023/11/27 00:38:07;;;;;;;19.35;11.27;;;4.90;99.90;;;;;;5012422;28;20524;-74
2023/11/27 00:40:53;;;;;;;16.35;10.27;;;4.90;99.90;;;;;;5009956;28;20042;-74
2023/11/27 00:43:39;;;;;;;18.70;11.38;;;4.80;99.90;;;;;;5016570;28;20068;-74
2023/11/27 00:46:25;;;;;;;14.60;9.25;;;4.80;99.90;;;;;;5009385;28;20077;-74
2023/11/27 00:49:12;;;;;;;17.10;11.65;;;4.80;99.90;;;;;;5029799;28;20045;-74
2023/11/27 00:51:58;;;;;;;21.70;10.90;;;4.80;99.90;;;;;;5027222;28;20042;-74
2023/11/27 00:54:44;;;;;;;15.43;9.65;;;4.80;99.90;;;;;;5030966;28;20061;-74
2023/11/27 00:57:30;;;;;;;16.80;9.77;;;4.90;99.90;;;;;;5031010;28;20041;-74
2023/11/27 01:00:17;;;;;;;16.45;9.90;;;4.90;99.90;;;;;;5032699;28;20553;-75
2023/11/27 01:03:03;;;;;;;19.52;10.02;;;4.90;99.90;;;;;;5009888;28;20041;-74
2023/11/27 01:05:49;;;;;;;16.85;9.23;;;4.90;99.90;;;;;;5017341;28;20470;-75
2023/11/27 01:08:37;;;;;;;19.20;8.82;;;4.80;99.90;;;;;;5025916;28;20055;-74
2023/11/27 01:11:23;;;;;;;16.00;8.95;;;4.90;99.90;;;;;;5017473;28;20546;-75
2023/11/27 01:14:09;;;;;;;14.57;9.73;;;4.90;99.90;;;;;;5021620;28;20052;-76
2023/11/27 01:16:56;;;;;;;16.02;9.80;;;4.90;99.90;;;;;;5045039;28;20073;-74
2023/11/27 01:19:42;;;;;;;13.23;8.27;;;4.90;99.90;;;;;;5038793;28;20588;-74
2023/11/27 01:22:28;;;;;;;14.15;8.65;;;4.90;99.90;;;;;;5031680;28;20040;-74
2023/11/27 01:25:14;;;;;;;15.95;9.48;;;4.90;99.90;;;;;;5041429;28;20037;-74
2023/11/27 01:28:00;;;;;;;16.17;9.90;;;4.90;99.90;;;;;;5024221;28;20059;-74
2023/11/27 01:30:46;;;;;;;12.43;8.35;;;4.90;99.90;;;;;;5026793;28;20116;-74
2023/11/27 01:33:32;;;;;;;9.73;7.43;;;4.90;99.90;;;;;;5041345;28;20045;-74
2023/11/27 01:36:18;;;;;;;10.77;6.57;;;4.90;99.90;;;;;;5031407;28;20037;-74
2023/11/27 01:39:05;;;;;;;11.95;6.05;;;4.80;99.90;;;;;;5008544;28;20038;-74
2023/11/27 01:41:51;;;;;;;8.38;5.50;;;4.80;99.90;;;;;;5022143;28;20643;-74
2023/11/27 01:44:38;;;;;;;7.88;5.13;;;4.80;99.90;;;;;;5020187;28;20042;-74
2023/11/27 01:47:25;;;;;;;10.30;5.35;;;4.70;99.90;;;;;;5031992;28;20041;-74
2023/11/27 01:50:11;;;;;;;9.70;6.03;;;4.80;99.90;;;;;;5021120;28;20120;-74
2023/11/27 01:52:57;;;;;;;11.80;5.90;;;4.70;99.90;;;;;;5015420;28;20042;-74
2023/11/27 01:55:43;;;;;;;10.82;5.80;;;4.80;99.90;;;;;;5023245;28;20040;-74
2023/11/27 01:58:29;;;;;;;9.38;5.45;;;4.70;99.90;;;;;;5015688;28;20116;-74
2023/11/27 02:01:16;;;;;;;11.30;5.85;;;4.70;99.90;;;;;;5017978;28;20065;-74
2023/11/27 02:04:02;;;;;;;10.32;6.18;;;4.70;99.90;;;;;;5026692;28;20033;-74
2023/11/27 02:06:50;;;;;;;9.15;5.75;;;4.70;99.90;;;;;;5045213;28;20033;-74
2023/11/27 02:09:36;;;;;;;;;;;4.70;99.90;;;;;;5020935;28;20053;-74
2023/11/27 02:12:23;;;;;;;8.88;6.22;;;4.70;99.90;;;;;;5040992;28;19909;-74
2023/11/27 02:15:09;;;;;;;8.73;5.47;;;4.70;99.90;;;;;;5037480;28;20037;-74
2023/11/27 02:17:55;;;;;;;10.05;5.80;;;4.80;99.90;;;;;;5018733;28;20633;-74
2023/11/27 02:20:43;;;;;;;8.13;5.30;;;4.70;99.90;;;;;;5022383;28;20040;-74
2023/11/27 02:23:29;;;;;;;8.80;5.70;;;4.80;99.90;;;;;;5018665;28;20030;-74
2023/11/27 02:26:15;;;;;;;9.73;5.28;;;4.80;99.90;;;;;;5040196;28;20503;-74
2023/11/27 02:29:03;;;;;;;8.98;5.07;;;4.70;99.90;;;;;;5029154;28;20119;-74
2023/11/27 02:31:49;;;;;;;11.23;6.20;;;4.80;99.90;;;;;;5020021;28;20524;-74
2023/11/27 02:34:35;;;;;;;8.48;5.10;;;4.80;99.90;;;;;;5021939;28;20128;-74
2023/11/27 02:37:21;;;;;;;10.18;5.78;;;4.80;99.90;;;;;;5017272;28;20091;-74
2023/11/27 02:40:10;;;;;;;9.13;5.70;;;4.80;99.90;;;;;;5013139;28;20064;-74
2023/11/27 02:42:56;;;;;;;7.10;4.93;;;4.80;99.90;;;;;;5015929;28;20037;-74
2023/11/27 02:45:42;;;;;;;8.43;4.88;;;4.70;99.90;;;;;;5014308;28;20516;-74
2023/11/27 02:48:28;;;;;;;7.13;4.78;;;4.60;99.90;;;;;;5019727;28;20069;-75
2023/11/27 02:51:15;;;;;;;7.97;4.95;;;4.70;99.90;;;;;;5024641;28;20047;-74
2023/11/27 02:54:01;;;;;;;8.50;4.63;;;4.60;99.90;;;;;;5011730;28;20073;-74
2023/11/27 02:56:47;;;;;;;7.18;4.53;;;4.70;99.90;;;;;;5020955;28;20065;-74
2023/11/27 02:59:33;;;;;;;7.00;4.80;;;4.70;99.90;;;;;;5028527;28;20080;-74
2023/11/27 03:02:20;;;;;;;6.15;4.55;;;4.70;99.90;;;;;;5037763;28;20419;-74
2023/11/27 03:05:08;;;;;;;7.05;4.57;;;4.70;99.90;;;;;;5031764;28;20059;-74
2023/11/27 03:07:54;;;;;;;5.28;3.90;;;4.70;99.90;;;;;;5035540;28;20347;-74
2023/11/27 03:10:40;;;;;;;5.70;3.95;;;4.60;99.90;;;;;;5052484;28;20076;-74
2023/11/27 03:13:26;;;;;;;7.30;3.95;;;4.60;99.90;;;;;;5022288;28;20033;-74
2023/11/27 03:16:12;;;;;;;7.65;4.38;;;4.60;99.90;;;;;;5039750;28;20045;-74
2023/11/27 03:18:58;;;;;;;5.93;4.10;;;4.60;99.90;;;;;;4995525;28;20417;-74
2023/11/27 03:21:45;;;;;;;6.10;4.30;;;4.60;99.90;;;;;;5041539;28;20069;-74
2023/11/27 03:24:31;;;;;;;8.15;4.10;;;4.60;99.90;;;;;;4996171;28;20034;-74
2023/11/27 03:27:17;;;;;;;5.55;4.05;;;4.60;99.90;;;;;;5013645;28;20072;-74
2023/11/27 03:30:04;;;;;;;6.65;4.20;;;4.60;99.90;;;;;;5040318;28;20043;-74
2023/11/27 03:32:50;;;;;;;5.95;4.05;;;4.60;99.90;;;;;;5027542;28;20491;-74
2023/11/27 03:35:37;;;;;;;10.07;4.07;;;4.70;99.90;;;;;;5023174;28;20068;-75
2023/11/27 03:38:23;;;;;;;6.17;3.90;;;4.60;99.90;;;;;;5038309;28;20095;-75
2023/11/27 03:41:20;;;;;;;5.70;3.47;;;4.70;99.90;;;;;;5014855;28;20269;-74
2023/11/27 03:44:08;;;;;;;7.90;3.70;;;4.70;99.90;;;;;;5014381;28;20060;-75
2023/11/27 03:46:54;;;;;;;6.22;3.95;;;4.60;99.90;;;;;;5025966;28;20033;-75
2023/11/27 03:49:40;;;;;;;6.03;3.85;;;4.70;99.90;;;;;;5007479;28;20481;-75
2023/11/27 03:52:26;;;;;;;4.68;3.58;;;4.60;99.90;;;;;;5017343;28;20482;-74
2023/11/27 03:55:13;;;;;;;5.18;3.83;;;4.60;99.90;;;;;;5009499;28;20041;-74
2023/11/27 03:57:59;;;;;;;4.80;3.83;;;4.60;99.90;;;;;;5023351;28;20041;-75
2023/11/27 04:00:45;;;;;;;5.32;3.60;;;4.50;99.90;;;;;;5015815;28;20418;-75
2023/11/27 04:03:32;;;;;;;6.18;3.80;;;4.60;99.90;;;;;;5019484;28;20033;-75
2023/11/27 04:06:24;;;;;;;5.60;3.97;;;4.60;99.90;;;;;;5010078;28;20034;-75
2023/11/27 04:09:13;;;;;;;6.95;4.18;;;4.60;99.90;;;;;;4991865;28;20045;-75
2023/11/27 04:11:59;;;;;;;5.88;4.20;;;4.60;99.90;;;;;;5032436;28;20074;-75
2023/11/27 04:14:45;;;;;;;5.15;3.75;;;4.60;99.90;;;;;;5022902;28;20048;-75
2023/11/27 04:17:31;;;;;;;9.20;4.95;;;4.60;99.90;;;;;;5021263;28;20038;-75
2023/11/27 04:20:17;;;;;;;6.63;4.00;;;4.60;99.90;;;;;;5037565;28;20131;-75
2023/11/27 04:23:03;;;;;;;6.75;4.90;;;4.60;99.90;;;;;;5005326;28;20037;-75
2023/11/27 04:25:49;;;;;;;6.95;4.70;;;4.60;99.90;;;;;;5005960;28;20107;-75
2023/11/27 04:28:37;;;;;;;8.00;5.57;;;4.60;99.90;;;;;;5029351;28;20145;-75
2023/11/27 04:31:23;;;;;;;6.82;5.10;;;4.50;99.90;;;;;;5022949;28;20052;-75
2023/11/27 04:34:09;;;;;;;11.05;6.22;;;4.50;99.90;;;;;;5012962;28;20191;-75
2023/11/27 04:36:55;;;;;;;9.15;6.10;;;4.50;99.90;;;;;;5036223;28;20048;-75
2023/11/27 04:39:44;;;;;;;8.55;5.85;;;4.50;99.90;;;;;;5018495;28;20342;-75
2023/11/27 04:42:33;;;;;;;8.43;6.18;;;4.50;99.90;;;;;;5013894;28;20033;-75
2023/11/27 04:45:19;;;;;;;8.50;6.60;;;4.50;99.90;;;;;;5019515;28;20030;-75
2023/11/27 04:48:05;;;;;;;10.35;6.85;;;4.50;99.90;;;;;;5010467;28;20048;-75
2023/11/27 04:50:51;;;;;;;10.10;7.00;;;4.50;99.90;;;;;;5012684;28;20468;-75
2023/11/27 04:53:38;;;;;;;11.13;7.35;;;4.50;99.90;;;;;;5030369;28;20706;-75
2023/11/27 04:56:24;;;;;;;13.33;8.13;;;4.40;99.90;;;;;;5051419;28;20064;-75
2023/11/27 04:59:11;;;;;;;12.07;8.85;;;4.50;99.90;;;;;;5016561;28;20110;-75
2023/11/27 05:01:57;;;;;;;15.85;8.38;;;4.40;99.90;;;;;;5044367;28;20045;-75
2023/11/27 05:04:43;;;;;;;11.63;8.35;;;4.40;99.90;;;;;;5022535;28;20033;-75
2023/11/27 05:07:30;;;;;;;14.30;8.75;;;4.40;99.90;;;;;;5005332;28;20120;-75
2023/11/27 05:10:16;;;;;;;12.05;8.48;;;4.40;99.90;;;;;;5025567;28;20048;-75
2023/11/27 05:13:02;;;;;;;14.75;8.98;;;4.40;99.90;;;;;;5025479;28;20366;-75
2023/11/27 05:15:48;;;;;;;15.95;9.38;;;4.40;99.90;;;;;;5032887;28;20045;-75
2023/11/27 05:18:34;;;;;;;16.50;9.43;;;4.40;99.90;;;;;;5026503;28;20130;-75
2023/11/27 05:21:20;;;;;;;16.40;10.50;;;4.50;99.90;;;;;;5049740;28;20055;-76
2023/11/27 05:24:06;;;;;;;15.70;10.80;;;4.50;99.90;;;;;;5007286;28;20100;-76
2023/11/27 05:26:53;;;;;;;16.60;9.88;;;4.50;99.90;;;;;;5038426;28;20124;-76
2023/11/27 05:29:40;;;;;;;15.73;9.38;;;4.50;99.90;;;;;;5037382;28;20046;-75
2023/11/27 05:32:26;;;;;;;14.82;9.15;;;4.50;99.90;;;;;;5037766;28;20061;-75
2023/11/27 05:35:13;;;;;;;12.73;9.82;;;4.40;99.90;;;;;;5025835;28;20081;-76
2023/11/27 05:37:59;;;;;;;14.93;9.55;;;4.40;99.90;;;;;;5015630;28;20044;-75
2023/11/27 05:40:46;;;;;;;12.82;9.77;;;4.40;99.90;;;;;;5042385;28;20067;-75
2023/11/27 05:43:32;;;;;;;11.52;8.88;;;4.40;99.90;;;;;;5035570;28;20072;-75
2023/11/27 05:46:18;;;;;;;21.08;10.93;;;4.40;99.90;;;;;;5038534;28;20482;-75
2023/11/27 05:49:05;;;;;;;14.52;9.35;;;4.40;99.90;;;;;;4996117;28;20049;-75
2023/11/27 05:51:51;;;;;;;23.88;11.00;;;4.40;99.90;;;;;;5049684;28;20045;-75
2023/11/27 05:54:37;;;;;;;16.38;9.07;;;4.40;99.90;;;;;;5034459;28;20048;-76
2023/11/27 05:57:23;;;;;;;15.02;9.13;;;4.40;99.90;;;;;;5009776;28;20148;-75
2023/11/27 06:00:10;;;;;;;14.73;9.60;;;4.40;99.90;;;;;;5022393;28;20045;-75
2023/11/27 06:02:56;;;;;;;17.42;8.48;;;4.40;99.90;;;;;;5011665;28;20125;-75
2023/11/27 06:05:43;;;;;;;14.85;8.88;;;4.40;99.90;;;;;;5056455;28;20040;-76
2023/11/27 06:08:30;;;;;;;12.87;8.23;;;4.30;99.90;;;;;;5021042;28;20040;-76
2023/11/27 06:11:17;;;;;;;17.03;9.30;;;4.40;99.90;;;;;;5007778;28;20052;-75
2023/11/27 06:14:03;;;;;;;15.05;8.93;;;4.30;99.90;;;;;;5029573;28;20271;-76
2023/11/27 06:16:49;;;;;;;15.27;9.02;;;4.30;99.90;;;;;;5028606;28;20067;-77
2023/11/27 06:19:35;;;;;;;13.93;8.77;;;4.30;99.90;;;;;;5029193;28;20040;-77
2023/11/27 06:22:23;;;;;;;13.90;9.07;;;4.30;99.90;;;;;;5031986;28;20065;-77
2023/11/27 06:25:09;;;;;;;14.10;9.20;;;4.30;99.90;;;;;;5021050;28;20049;-77
2023/11/27 06:27:56;;;;;;;14.00;8.85;;;4.30;99.90;;;;;;5010603;28;20041;-76
2023/11/27 06:30:42;;;;;;;14.20;8.73;;;4.30;99.90;;;;;;5023188;28;20061;-77
2023/11/27 06:33:28;;;;;;;15.63;8.73;;;4.30;99.90;;;;;;5030278;28;20048;-77
2023/11/27 06:36:14;;;;;;;12.73;8.68;;;4.30;99.90;;;;;;5056395;28;20132;-77
2023/11/27 06:39:01;;;;;;;12.63;9.05;;;4.30;99.90;;;;;;5003463;28;20483;-77
2023/11/27 06:41:50;;;;;;;13.95;9.00;;;4.30;99.90;;;;;;5035945;28;20072;-77
2023/11/27 06:44:36;;;;;;;16.52;8.85;;;4.30;99.90;;;;;;5056210;28;20052;-76
2023/11/27 06:47:22;;;;;;;14.07;9.02;;;4.20;99.90;;;;;;5011722;28;20049;-78
2023/11/27 06:50:09;;;;;;;12.63;8.52;;;4.20;99.90;;;;;;5013728;28;20048;-78
2023/11/27 06:52:56;;;;;;;16.25;9.38;;;4.30;99.90;;;;;;5022689;28;20041;-78
2023/11/27 06:55:42;;;;;;;14.20;8.80;;;4.30;99.90;;;;;;5020428;28;20048;-77
2023/11/27 06:58:30;;;;;;;18.30;10.07;;;4.30;99.90;;;;;;5017636;28;20513;-77
2023/11/27 07:01:16;;;;;;;13.65;9.75;;;4.30;99.90;;;;;;5013645;28;20063;-78
2023/11/27 07:04:02;;;;;;;14.57;9.52;;;4.30;99.90;;;;;;5038440;28;20369;-78
2023/11/27 07:06:48;;;;;;;15.00;10.40;;;4.30;99.90;;;;;;5041807;28;20048;-78
2023/11/27 07:09:35;;;;;;;14.50;10.05;;;4.40;99.90;;;;;;5003391;28;20048;-77
2023/11/27 07:12:21;;;;;;;15.73;9.55;;;4.40;99.90;;;;;;5025191;28;20481;-78
2023/11/27 07:15:10;;;;;;;18.05;10.75;;;4.40;99.90;;;;;;5030683;28;20398;-77
2023/11/27 07:17:59;;;;;;;19.55;12.05;;;4.40;99.90;;;;;;5006372;28;20506;-77
2023/11/27 07:20:45;;;;;;;17.27;10.85;;;4.40;99.90;;;;;;4990952;28;20041;-77
2023/11/27 07:23:31;;;;;;;13.82;9.50;;;4.40;99.90;;;;;;5003488;28;20049;-78
2023/11/27 07:26:18;;;;;;;17.67;10.52;;;4.40;99.90;;;;;;5019708;28;20041;-78
2023/11/27 07:29:04;;;;;;;14.57;10.30;;;4.40;99.90;;;;;;5035635;28;20116;-77
2023/11/27 07:31:50;;;;;;;16.50;9.75;;;4.40;99.90;;;;;;5008494;28;20060;-77
2023/11/27 07:34:36;;;;;;;13.45;8.95;;;4.40;99.90;;;;;;5021344;28;20042;-78
2023/11/27 07:37:22;;;;;;;13.95;9.55;;;4.40;99.90;;;;;;5033469;28;20174;-77
2023/11/27 07:40:12;;;;;;;13.68;9.45;;;4.30;99.90;;;;;;5051415;28;20431;-77
2023/11/27 07:42:58;;;;;;;13.25;9.00;;;4.30;99.90;;;;;;5003518;28;20045;-76
2023/11/27 07:45:45;;;;;;;18.52;9.48;;;4.30;99.90;;;;;;5032911;28;20037;-78
2023/11/27 07:48:31;;;;;;;13.98;8.48;;;4.30;99.90;;;;;;5056244;28;20508;-77
2023/11/27 07:51:17;;;;;;;13.02;8.43;;;4.30;99.90;;;;;;5025511;28;20052;-78
2023/11/27 07:54:05;;;;;;;13.02;9.13;;;4.30;99.90;;;;;;5022972;28;20057;-77
2023/11/27 07:56:53;;;;;;;13.77;8.95;;;4.40;99.90;;;;;;5020030;28;20042;-77
2023/11/27 07:59:39;;;;;;;13.98;8.50;;;4.40;99.90;;;;;;4999315;28;20069;-77
2023/11/27 08:02:25;;;;;;;14.75;8.10;;;4.40;99.90;;;;;;5030770;28;20108;-77
2023/11/27 08:05:11;;;;;;;10.60;7.25;;;4.40;99.90;;;;;;5028095;28;20032;-75
2023/11/27 08:07:57;;;;;;;11.50;7.50;;;4.30;99.90;;;;;;5029552;28;20099;-77
2023/11/27 08:10:45;;;;;;;11.88;7.93;;;4.40;99.90;;;;;;5019865;28;20050;-77
2023/11/27 08:13:31;;;;;;;12.10;7.53;;;4.40;99.90;;;;;;5029452;28;20037;-77
2023/11/27 08:16:19;;;;;;;13.02;7.70;;;4.40;99.90;;;;;;5023205;28;20052;-77
2023/11/27 08:19:05;;;;;;;;;;;4.40;99.90;;;;;;5014334;28;20366;-78
2023/11/27 08:21:52;;;;;;;13.15;8.30;;;4.40;99.90;;;;;;5019972;28;19938;-77
2023/11/27 08:24:40;;;;;;;14.18;9.48;;;4.40;99.90;;;;;;5025596;28;20037;-77
2023/11/27 08:27:26;;;;;;;13.27;8.55;;;4.40;99.90;;;;;;5044017;28;20038;-77
2023/11/27 08:30:12;;;;;;;12.88;8.55;;;4.40;99.90;;;;;;5033739;28;20045;-77
2023/11/27 08:33:00;;;;;;;14.00;8.40;;;4.50;99.90;;;;;;5022096;28;20382;-77
2023/11/27 08:35:48;;;;;;;13.48;8.63;;;4.50;99.90;;;;;;5025602;28;20064;-77
2023/11/27 08:38:34;;;;;;;13.30;8.47;;;4.50;99.90;;;;;;5045578;28;20111;-77
2023/11/27 08:41:20;;;;;;;13.82;9.10;;;4.50;99.90;;;;;;5012108;28;20118;-78
2023/11/27 08:44:08;;;;;;;13.40;8.45;;;4.50;99.90;;;;;;5031289;28;20059;-77
2023/11/27 08:46:54;;;;;;;;;;;4.60;99.90;;;;;;5036766;28;20064;-76
2023/11/27 08:49:40;;;;;;;12.57;8.38;;;4.60;99.90;;;;;;5022557;28;20329;-78
2023/11/27 08:52:26;;;;;;;15.10;8.38;;;4.60;99.90;;;;;;5014180;28;20042;-76
2023/11/27 08:55:18;;;;;;;13.50;9.52;;;4.60;99.90;;;;;;5031975;28;20041;-77
2023/11/27 08:58:04;;;;;;;12.85;8.57;;;4.60;99.90;;;;;;5032668;28;20382;-78
2023/11/27 09:00:51;;;;;;;11.35;7.80;;;4.60;99.90;;;;;;5015999;28;20049;-78
2023/11/27 09:03:37;;;;;;;14.75;9.15;;;4.60;99.90;;;;;;5024569;28;20029;-77
2023/11/27 09:06:23;;;;;;;14.75;8.38;;;4.60;99.90;;;;;;5040879;28;20041;-78
2023/11/27 09:09:09;;;;;;;16.45;8.48;;;4.70;99.90;;;;;;5037823;28;20094;-78
2023/11/27 09:11:57;;;;;;;13.25;8.23;;;4.70;99.90;;;;;;5013491;28;20042;-76
2023/11/27 09:14:43;;;;;;;12.65;8.50;;;4.70;99.90;;;;;;5006047;28;20041;-76
2023/11/27 09:17:29;;;;;;;11.13;7.55;;;4.70;99.90;;;;;;5007116;28;20102;-77
2023/11/27 09:20:16;;;;;;;14.07;8.40;;;4.70;99.90;;;;;;5016905;28;20029;-76
2023/11/27 09:23:03;;;;;;;12.60;8.43;;;4.70;99.90;;;;;;5034960;28;20520;-76
2023/11/27 09:25:49;;;;;;;13.52;8.73;;;4.80;99.90;;;;;;5041242;28;20044;-77
2023/11/27 09:28:35;;;;;;;10.30;7.38;;;4.70;99.90;;;;;;5056500;28;20036;-77
2023/11/27 09:31:22;;;;;;;13.63;7.70;;;4.80;99.90;;;;;;5028630;28;20369;-76
2023/11/27 09:34:08;;;;;;;10.30;6.95;;;4.90;99.90;;;;;;5044639;28;20470;-77
2023/11/27 09:36:54;;;;;;;10.23;7.00;;;4.80;99.90;;;;;;5058169;28;20045;-75
2023/11/27 09:39:40;;;;;;;13.45;7.40;;;4.80;99.90;;;;;;5004293;28;20168;-77
2023/11/27 09:42:35;;;;;;;9.82;7.03;;;4.90;99.90;;;;;;5005314;28;20097;-77
2023/11/27 09:45:24;;;;;;;15.02;7.40;;;4.80;99.90;;;;;;5006437;28;20112;-77
2023/11/27 09:48:10;;;;;;;10.73;6.85;;;4.90;99.90;;;;;;5029570;28;20041;-77
2023/11/27 09:50:58;;;;;;;9.75;6.32;;;4.90;99.90;;;;;;5034138;28;20137;-78
2023/11/27 09:53:50;;;;;;;11.93;7.00;;;4.90;99.90;;;;;;5018001;28;20042;-77
2023/11/27 09:56:36;;;;;;;9.23;6.22;;;4.90;99.90;;;;;;5021298;28;20327;-76
2023/11/27 09:59:22;;;;;;;11.25;6.70;;;5.00;99.90;;;;;;5022517;28;20044;-76
2023/11/27 10:02:09;;;;;;;9.60;6.32;;;4.90;99.90;;;;;;5037306;28;20101;-75
2023/11/27 10:04:55;;;;;;;11.43;6.10;;;5.00;99.90;;;;;;5016544;28;20421;-76
2023/11/27 10:07:41;;;;;;;10.52;6.47;;;5.00;99.90;;;;;;5024007;28;20037;-77
2023/11/27 10:10:27;;;;;;;9.05;5.90;;;5.00;99.90;;;;;;5031472;28;20405;-76
2023/11/27 10:13:13;;;;;;;10.32;5.78;;;5.00;99.90;;;;;;5029538;28;20351;-76
2023/11/27 10:15:59;;;;;;;10.77;6.20;;;5.00;99.90;;;;;;5003515;28;20088;-77
2023/11/27 10:18:51;;;;;;;11.55;6.13;;;5.00;99.90;;;;;;5038909;28;20036;-77
2023/11/27 10:21:38;;;;;;;9.70;5.28;;;5.10;99.90;;;;;;5005249;28;20041;-76
2023/11/27 10:24:24;;;;;;;10.27;5.90;;;5.10;99.90;;;;;;5004581;28;20037;-77
2023/11/27 10:27:10;;;;;;;8.90;4.97;;;5.10;99.90;;;;;;5003212;28;20415;-77
2023/11/27 10:29:58;;;;;;;9.63;5.22;;;5.10;99.90;;;;;;5006162;28;20041;-76
2023/11/27 10:32:45;;;;;;;7.32;5.32;;;5.10;99.90;;;;;;5007810;28;20259;-76
2023/11/27 10:35:32;;;;;;;8.20;5.15;;;5.20;99.90;;;;;;5043257;28;20127;-76
2023/11/27 10:38:18;;;;;;;8.57;5.43;;;5.20;99.90;;;;;;5012569;28;20052;-78
2023/11/27 10:41:05;;;;;;;9.45;5.22;;;5.20;99.90;;;;;;5047588;28;20033;-77
2023/11/27 10:43:51;;;;;;;10.75;5.00;;;5.20;99.90;;;;;;5031106;28;20041;-76
2023/11/27 10:46:37;;;;;;;8.68;5.05;;;5.20;99.90;;;;;;5037057;28;20199;-78
2023/11/27 10:49:24;;;;;;;8.25;4.70;;;5.20;99.90;;;;;;5037296;28;20044;-77
2023/11/27 10:52:11;;;;;;;8.73;5.00;;;5.20;99.90;;;;;;5015080;28;20394;-78
2023/11/27 10:54:58;;;;;;;7.57;5.25;;;5.20;99.90;;;;;;5014567;28;20496;-76
2023/11/27 10:57:48;;;;;;;11.88;5.03;;;5.20;99.90;;;;;;4993497;28;20148;-78
2023/11/27 11:00:46;;;;;;;9.32;5.20;;;5.20;99.90;;;;;;5021837;28;20041;-78
2023/11/27 11:03:33;;;;;;;8.50;4.95;;;5.30;99.90;;;;;;5042627;28;20041;-76
2023/11/27 11:06:20;;;;;;;8.57;4.30;;;5.30;99.90;;;;;;5019489;28;20043;-77
2023/11/27 11:09:11;;;;;;;5.65;4.15;;;5.30;99.90;;;;;;5045451;28;20056;-78
2023/11/27 11:12:00;;;;;;;7.65;4.60;;;5.20;99.90;;;;;;5039540;28;20045;-79
2023/11/27 11:14:46;;;;;;;8.45;4.80;;;5.30;99.90;;;;;;5014959;28;20048;-77
2023/11/27 11:18:00;;;;;;;7.18;4.45;;;5.30;99.90;;;;;;5003400;28;20045;-77
2023/11/27 11:21:06;;;;;;;7.07;4.65;;;5.30;99.90;;;;;;5030579;28;20033;-77
2023/11/27 11:24:19;;;;;;;7.68;4.75;;;5.30;99.90;;;;;;5037591;28;20076;-78
2023/11/27 11:27:23;;;;;;;7.80;4.13;;;5.30;99.90;;;;;;5028101;28;20107;-76
2023/11/27 11:30:13;;;;;;;6.68;4.22;;;5.30;99.90;;;;;;5018031;28;20037;-77
2023/11/27 11:33:05;;;;;;;7.95;4.57;;;5.30;99.90;;;;;;5013718;28;20372;-77
2023/11/27 11:35:51;;;;;;;9.35;4.00;;;5.30;99.90;;;;;;5043169;28;20041;-76
2023/11/27 11:38:45;;;;;;;10.18;5.38;;;5.30;99.90;;;;;;5017617;28;20080;-77
2023/11/27 11:41:32;;;;;;;7.85;4.82;;;5.30;99.90;;;;;;5022017;28;20034;-76
2023/11/27 11:44:18;;;;;;;11.38;6.47;;;5.30;99.90;;;;;;5028615;28;20037;-78
2023/11/27 11:47:23;;;;;;;9.10;4.88;;;5.30;99.90;;;;;;5021104;28;20041;-78
2023/11/27 11:50:27;;;;;;;8.48;4.88;;;5.30;99.90;;;;;;5046884;28;20354;-78
2023/11/27 11:53:22;;;;;;;11.52;5.00;;;5.30;99.90;;;;;;5056656;28;20041;-77
2023/11/27 11:56:22;;;;;;;8.82;5.70;;;5.30;99.90;;;;;;5051250;28;20052;-77
2023/11/27 11:59:13;;;;;;;10.13;5.60;;;5.30;99.90;;;;;;5026213;28;20039;-79
2023/11/27 12:01:59;;;;;;;11.68;5.28;;;5.30;99.90;;;;;;5044944;28;20032;-78
2023/11/27 12:04:48;;;;;;;8.93;5.20;;;5.30;99.90;;;;;;5048048;28;20045;-76
2023/11/27 12:07:34;;;;;;;10.18;5.45;;;5.30;99.90;;;;;;5012988;28;20076;-78
2023/11/27 12:10:20;;;;;;;10.73;5.68;;;5.30;99.90;;;;;;5033514;28;20044;-76
2023/11/27 12:13:10;;;;;;;12.45;6.03;;;5.30;99.90;;;;;;5031757;28;20449;-77
2023/11/27 12:15:56;;;;;;;12.40;6.63;;;5.30;99.90;;;;;;5019320;28;20056;-77
2023/11/27 12:18:49;;;;;;;13.38;6.10;;;5.30;99.90;;;;;;5021798;28;20040;-77
2023/11/27 12:21:36;;;;;;;10.80;5.78;;;5.30;99.90;;;;;;5044703;28;20468;-76
2023/11/27 12:24:23;;;;;;;11.33;5.90;;;5.30;99.90;;;;;;5043156;28;20501;-76
2023/11/27 12:27:09;;;;;;;12.13;7.00;;;5.30;99.90;;;;;;5007603;28;20429;-76
2023/11/27 12:29:57;;;;;;;12.90;6.75;;;5.30;99.90;;;;;;5045534;28;20084;-76
2023/11/27 12:32:43;;;;;;;12.73;7.45;;;5.30;99.90;;;;;;4996264;28;20088;-76
2023/11/27 12:35:29;;;;;;;13.55;7.30;;;5.30;99.90;;;;;;5027725;28;20040;-77
2023/11/27 12:38:15;;;;;;;14.00;6.78;;;5.30;99.90;;;;;;5057923;28;20069;-76
2023/11/27 12:41:06;;;;;;;12.65;6.82;;;5.30;99.90;;;;;;5030122;28;20049;-77
2023/11/27 12:43:52;;;;;;;10.98;7.05;;;5.30;99.90;;;;;;5012946;28;20038;-77
2023/11/27 12:46:48;;;;;;;11.18;6.80;;;5.30;99.90;;;;;;5010060;28;20048;-76
2023/11/27 12:49:34;;;;;;;10.73;6.70;;;5.20;99.90;;;;;;5037698;28;20041;-76
2023/11/27 12:52:20;;;;;;;12.23;7.05;;;5.20;99.90;;;;;;5004825;28;20073;-76
2023/11/27 12:55:07;;;;;;;10.43;7.25;;;5.20;99.90;;;;;;5023526;28;20044;-76
2023/11/27 12:57:53;;;;;;;11.85;7.43;;;5.20;99.90;;;;;;5012480;28;20045;-76
2023/11/27 13:00:41;;;;;;;14.52;7.25;;;5.10;99.90;;;;;;5047289;28;20055;-76
2023/11/27 13:03:27;;;;;;;13.07;7.65;;;5.10;99.90;;;;;;5008732;28;20077;-76
2023/11/27 13:06:13;;;;;;;12.25;7.60;;;5.10;99.90;;;;;;5025206;28;20473;-76
2023/11/27 13:09:01;;;;;;;15.20;8.38;;;5.10;99.90;;;;;;5040685;28;20041;-76
2023/11/27 13:11:47;;;;;;;13.82;8.13;;;5.10;99.90;;;;;;5042523;28;20049;-76
2023/11/27 13:14:36;;;;;;;16.48;8.27;;;5.10;99.90;;;;;;5020676;28;20037;-76
2023/11/27 13:17:24;;;;;;;16.77;8.73;;;5.10;99.90;;;;;;5028265;28;21409;-76
2023/11/27 13:20:17;;;;;;;11.23;7.88;;;5.10;99.90;;;;;;5028737;28;20045;-76
2023/11/27 13:23:03;;;;;;;15.10;7.72;;;5.00;99.90;;;;;;5028301;28;20034;-77
2023/11/27 13:25:49;;;;;;;10.43;6.95;;;5.00;99.90;;;;;;5026993;28;20426;-75
2023/11/27 13:28:40;;;;;;;10.48;6.80;;;4.80;99.90;;;;;;5031500;28;20034;-76
2023/11/27 13:31:28;;;;;;;11.70;7.05;;;4.80;99.90;;;;;;5045094;28;20041;-76
2023/11/27 13:37:34;;;;;;;9.73;6.75;;;4.70;99.90;;;;;;5011802;28;20071;-75
2023/11/27 13:40:23;;;;;;;9.63;5.50;;;4.70;99.90;;;;;;5048418;28;20037;-75
2023/11/27 13:43:09;;;;;;;7.63;5.22;;;4.50;99.90;;;;;;5022528;28;20124;-76
2023/11/27 13:45:55;;;;;;;8.35;4.82;;;4.50;99.90;;;;;;5052384;28;20623;-76
2023/11/27 13:48:43;;;;;;;7.38;4.78;;;4.50;99.90;;;;;;5025589;28;20041;-76
2023/11/27 13:51:31;;;;;;;7.28;4.78;;;4.40;99.90;;;;;;5009137;28;20087;-75
2023/11/27 13:54:17;;;;;;;8.00;5.45;;;4.30;99.90;;;;;;5039795;28;20055;-76
2023/11/27 13:57:05;;;;;;;8.48;5.15;;;4.40;99.90;;;;;;5041959;28;20111;-75
2023/11/27 13:59:51;;;;;;;8.48;5.28;;;4.40;99.90;;;;;;5017871;28;20030;-75
2023/11/27 14:02:37;;;;;;;8.40;6.07;;;4.30;99.90;;;;;;5029552;28;20042;-75
2023/11/27 14:05:25;;;;;;;7.43;5.25;;;4.30;99.90;;;;;;5037127;28;20044;-75
2023/11/27 14:08:15;;;;;;;7.95;5.82;;;4.20;99.90;;;;;;5055298;28;20124;-75
2023/11/27 14:14:10;;;;;;;6.43;4.93;;;4.20;99.90;;;;;;5012937;28;20044;-75
2023/11/27 14:17:17;;;;;;;7.43;5.15;;;4.20;99.90;;;;;;5043291;28;20382;-75
2023/11/27 14:23:24;;;;;;;7.03;5.00;;;4.10;99.90;;;;;;5027811;28;20045;-76
2023/11/27 14:29:00;;;;;;;8.35;5.40;;;4.00;99.90;;;;;;5006028;28;20095;-75
2023/11/27 14:31:46;;;;;;;8.70;4.78;;;4.00;99.90;;;;;;5015423;28;20137;-76
2023/11/27 14:34:32;;;;;;;7.95;5.70;;;4.00;99.90;;;;;;5025641;28;20036;-75
2023/11/27 14:37:21;;;;;;;9.40;4.57;;;3.90;99.90;;;;;;5039003;28;20045;-76
2023/11/27 14:40:19;;;;;;;9.43;5.38;;;3.90;99.90;;;;;;4998129;28;20053;-76
2023/11/27 14:43:05;;;;;;;7.85;4.88;;;3.90;99.90;;;;;;5037320;28;20040;-75
2023/11/27 14:45:52;;;;;;;7.63;4.43;;;3.80;99.90;;;;;;5030070;28;20400;-75
2023/11/27 14:48:41;;;;;;;8.88;4.80;;;3.70;99.90;;;;;;5035697;28;20456;-76